aviador You're here:

KOJC Decoded Metar

OLATHE/EXECUTIVE in KS, USA
Report Time2018-01-22 10:53:00
UTC Time2018-01-22 11:55:15
Flight Rules vfr VFR
Wind220° at 06 kt
W.Decomp.*RWY 18: 4.9 kt HW 3.5 kt RCW
W.Rank220° ranks 19
Current wind is below 220° avg. (7.5)
Visibility9999 m
Phenomena:N/A
Clouds:N/A
CeilingNone
Temp03°C (ISA -10)
Dew Point03°C (100% RH)
AAT-0.7°C
QNH998 hPa
Density Alt495 ft
Elevation1,070 ft
Report Wrong Elevation
Raw Report
KOJC 221053Z AUTO 22006KT 9SM CLR 03/03 A2946 RMK AO2 SLP976
T00330028=

Extra information for KOJC:More info

Metar Taf Metar & Taf Last 4 Metars F.Rules Stats Wind Profile Meteogram Temp Stats Airport Information Weather charts Add Link Nearby VenuesMetar ALERT Operation Metar Decoded Social comments

AIRNAV info for KOJC